createdAt,value
2018-05-05T00:00:16.092Z,48.17
2018-05-05T00:02:44.538Z,47.09
2018-05-05T00:05:12.926Z,48.68
2018-05-05T00:07:41.352Z,48.05
2018-05-05T00:10:09.818Z,47.76
2018-05-05T00:12:38.266Z,47.13
2018-05-05T00:15:06.661Z,46.86
2018-05-05T00:17:35.026Z,48.33
2018-05-05T00:20:03.413Z,48.56
2018-05-05T00:22:31.868Z,48.99
2018-05-05T00:25:00.396Z,48.80
2018-05-05T00:27:28.778Z,47.77
2018-05-05T00:29:57.192Z,48.03
2018-05-05T00:32:25.569Z,48.44
2018-05-05T00:34:54.017Z,48.78
2018-05-05T00:37:22.465Z,49.15
2018-05-05T00:39:50.854Z,48.32
2018-05-05T00:42:19.262Z,48.46
2018-05-05T00:44:47.816Z,48.22
2018-05-05T00:47:16.248Z,48.86
2018-05-05T00:49:44.623Z,48.10
2018-05-05T00:52:13.099Z,48.62
2018-05-05T00:54:50.170Z,49.22
2018-05-05T00:57:18.586Z,48.54
2018-05-05T00:59:47.015Z,47.08
2018-05-05T01:02:15.376Z,48.02
2018-05-05T01:04:43.750Z,48.63
2018-05-05T01:07:12.185Z,48.78
2018-05-05T01:09:40.629Z,48.15
2018-05-05T01:12:09.089Z,49.72
2018-05-05T01:14:37.475Z,49.91
2018-05-05T01:17:05.981Z,49.08
2018-05-05T01:19:34.420Z,48.86
2018-05-05T01:22:02.820Z,49.29
2018-05-05T01:24:31.183Z,49.28
2018-05-05T01:26:59.569Z,49.26
2018-05-05T01:29:28.025Z,49.69
2018-05-05T01:31:56.433Z,49.51
2018-05-05T01:34:24.925Z,49.90
2018-05-05T01:36:53.295Z,50.08
2018-05-05T01:39:21.761Z,50.06
2018-05-05T01:41:50.213Z,49.57
2018-05-05T01:44:18.630Z,51.10
2018-05-05T01:46:47.066Z,50.25
2018-05-05T01:49:15.468Z,50.98
2018-05-05T01:51:43.940Z,50.90
2018-05-05T01:54:12.439Z,51.73
2018-05-05T01:56:40.862Z,50.30
2018-05-05T01:59:09.258Z,51.16
2018-05-05T02:01:37.688Z,51.58
2018-05-05T02:04:06.183Z,52.34
2018-05-05T02:06:34.666Z,52.08
2018-05-05T02:09:03.102Z,51.62
2018-05-05T02:11:31.488Z,51.76
2018-05-05T02:14:00.015Z,52.94
2018-05-05T02:16:28.429Z,51.54
2018-05-05T02:18:56.889Z,51.06
2018-05-05T02:21:25.288Z,51.34
2018-05-05T02:23:53.745Z,51.82
2018-05-05T02:26:22.191Z,50.99
2018-05-05T02:28:50.658Z,50.96
2018-05-05T02:31:19.052Z,50.75
2018-05-05T02:33:47.453Z,49.46
2018-05-05T02:36:15.857Z,49.31
2018-05-05T02:38:44.269Z,47.63
2018-05-05T02:41:12.647Z,48.17
2018-05-05T02:43:41.181Z,49.51
2018-05-05T02:46:09.586Z,49.52
2018-05-05T02:48:37.988Z,46.97
2018-05-05T02:51:06.379Z,48.57
2018-05-05T02:53:34.812Z,48.04
2018-05-05T02:56:03.230Z,47.59
2018-05-05T02:58:31.670Z,47.72
2018-05-05T03:01:00.165Z,47.46
2018-05-05T03:03:28.612Z,46.91
2018-05-05T03:05:57.091Z,46.39
2018-05-05T03:08:25.531Z,45.72
2018-05-05T03:10:54.001Z,48.11
2018-05-05T03:13:22.444Z,47.73
2018-05-05T03:15:50.859Z,46.17
2018-05-05T03:18:19.276Z,45.92
2018-05-05T03:20:47.721Z,46.97
2018-05-05T03:23:16.118Z,46.46
2018-05-05T03:25:44.484Z,46.32
2018-05-05T03:28:12.900Z,45.90
2018-05-05T03:30:41.353Z,45.94
2018-05-05T03:33:09.739Z,45.78
2018-05-05T03:35:38.199Z,46.06
2018-05-05T03:38:06.573Z,45.13
2018-05-05T03:40:35.194Z,45.26
2018-05-05T03:43:03.558Z,45.46
2018-05-05T03:45:31.976Z,46.02
2018-05-05T03:48:00.430Z,45.83
2018-05-05T03:50:28.870Z,46.54
2018-05-05T03:52:57.295Z,45.76
2018-05-05T03:55:25.842Z,45.74
2018-05-05T03:57:54.286Z,45.46
2018-05-05T04:00:34.483Z,46.75
2018-05-05T04:03:14.684Z,45.55
2018-05-05T04:05:47.548Z,45.55
2018-05-05T04:08:16.461Z,45.97
2018-05-05T04:10:45.172Z,46.00
2018-05-05T04:13:13.602Z,47.04
2018-05-05T04:15:42.049Z,47.10
2018-05-05T04:18:10.500Z,47.18
2018-05-05T04:20:38.971Z,45.72
2018-05-05T04:23:07.402Z,46.11
2018-05-05T04:25:36.857Z,46.61
2018-05-05T04:28:05.265Z,45.36
2018-05-05T04:30:34.610Z,45.55
2018-05-05T04:33:03.014Z,45.03
2018-05-05T04:35:31.620Z,44.91
2018-05-05T04:38:00.046Z,45.49
2018-05-05T04:40:28.458Z,47.87
2018-05-05T04:42:56.962Z,46.65
2018-05-05T04:45:25.407Z,45.51
2018-05-05T04:47:53.863Z,45.71
2018-05-05T04:50:22.287Z,45.04
2018-05-05T04:52:50.681Z,45.88
2018-05-05T04:55:20.086Z,46.24
2018-05-05T04:57:48.553Z,45.48
2018-05-05T05:00:17.045Z,46.74
2018-05-05T05:02:45.459Z,46.81
2018-05-05T05:05:13.889Z,46.73
2018-05-05T05:07:42.413Z,45.55
2018-05-05T05:10:10.802Z,45.10
2018-05-05T05:12:39.333Z,45.16
2018-05-05T05:15:07.758Z,44.27
2018-05-05T05:17:36.301Z,44.82
2018-05-05T05:20:04.760Z,44.79
2018-05-05T05:22:33.210Z,44.51
2018-05-05T05:25:01.605Z,44.06
2018-05-05T05:27:30.082Z,43.69
2018-05-05T05:29:58.533Z,44.18
2018-05-05T05:32:26.992Z,44.25
2018-05-05T05:34:55.448Z,42.53
2018-05-05T05:37:23.857Z,38.16
2018-05-05T05:39:52.294Z,35.63
2018-05-05T05:42:20.721Z,33.23
2018-05-05T05:44:49.132Z,31.18
2018-05-05T05:47:17.567Z,30.67
2018-05-05T05:49:46.041Z,30.93
2018-05-05T05:52:14.488Z,29.90
2018-05-05T05:54:42.894Z,27.55
2018-05-05T05:57:11.257Z,27.66
2018-05-05T05:59:39.717Z,28.36
2018-05-05T06:02:08.225Z,28.19
2018-05-05T06:04:36.621Z,27.79
2018-05-05T06:07:05.048Z,28.06
2018-05-05T06:09:33.462Z,27.78
2018-05-05T06:12:01.870Z,27.13
2018-05-05T06:14:30.310Z,26.66
2018-05-05T06:16:58.713Z,26.51
2018-05-05T06:19:27.125Z,25.52
2018-05-05T06:21:55.516Z,27.68
2018-05-05T06:24:23.990Z,26.49
2018-05-05T06:26:52.389Z,27.80
2018-05-05T06:29:20.810Z,28.62
2018-05-05T06:31:49.206Z,25.75
2018-05-05T06:34:17.641Z,25.90
2018-05-05T06:36:46.260Z,24.08
2018-05-05T06:39:14.663Z,24.89
2018-05-05T06:41:43.090Z,24.28
2018-05-05T06:44:11.529Z,23.92
2018-05-05T06:46:39.950Z,24.66
2018-05-05T06:49:08.348Z,25.60
2018-05-05T06:51:36.766Z,25.40
2018-05-05T06:54:05.236Z,25.29
2018-05-05T06:56:33.657Z,24.99
2018-05-05T06:59:02.065Z,25.20
2018-05-05T07:01:30.545Z,23.44
2018-05-05T07:03:58.953Z,24.94
2018-05-05T07:06:27.505Z,22.41
2018-05-05T07:08:55.972Z,22.25
2018-05-05T07:11:24.323Z,23.70
2018-05-05T07:13:52.788Z,22.78
2018-05-05T07:16:21.182Z,22.23
2018-05-05T07:18:49.538Z,22.30
2018-05-05T07:21:17.961Z,22.20
2018-05-05T07:23:46.467Z,22.16
2018-05-05T07:26:14.904Z,23.05
2018-05-05T07:28:43.304Z,23.34
2018-05-05T07:31:11.724Z,23.50
2018-05-05T07:33:40.134Z,22.81
2018-05-05T07:36:08.565Z,22.87
2018-05-05T07:38:36.982Z,21.96
2018-05-05T07:41:05.473Z,21.71
2018-05-05T07:43:33.942Z,23.27
2018-05-05T07:46:02.371Z,23.30
2018-05-05T07:48:30.790Z,23.06
2018-05-05T07:50:59.228Z,20.96
2018-05-05T07:53:27.754Z,19.70
2018-05-05T07:55:56.167Z,21.37
2018-05-05T07:58:24.615Z,21.00
2018-05-05T08:00:53.016Z,21.75
2018-05-05T08:03:21.527Z,21.27
2018-05-05T08:05:50.011Z,21.99
2018-05-05T08:08:18.441Z,21.97
2018-05-05T08:10:46.840Z,20.93
2018-05-05T08:13:15.236Z,22.07
2018-05-05T08:15:43.626Z,20.96
2018-05-05T08:18:12.045Z,20.49
2018-05-05T08:20:40.444Z,22.48
2018-05-05T08:23:08.818Z,23.06
2018-05-05T08:25:37.185Z,22.55
2018-05-05T08:28:05.575Z,20.86
2018-05-05T08:30:34.004Z,21.35
2018-05-05T08:33:02.414Z,22.05
2018-05-05T08:35:30.770Z,19.76
2018-05-05T08:37:59.133Z,20.54
2018-05-05T08:40:27.531Z,22.34
2018-05-05T08:42:56.317Z,21.19
2018-05-05T08:45:25.032Z,19.06
2018-05-05T08:47:53.701Z,19.65
2018-05-05T08:50:22.446Z,20.11
2018-05-05T08:52:51.237Z,19.93
2018-05-05T08:55:19.956Z,19.59
2018-05-05T08:57:49.110Z,19.35
2018-05-05T09:00:18.257Z,20.00
2018-05-05T09:02:47.466Z,20.07
2018-05-05T09:05:16.501Z,20.19
2018-05-05T09:07:45.072Z,21.89
2018-05-05T09:10:13.849Z,21.84
2018-05-05T09:12:42.672Z,20.42
2018-05-05T09:15:11.320Z,18.38
2018-05-05T09:17:39.896Z,17.40
2018-05-05T09:20:08.386Z,17.17
2018-05-05T09:22:36.800Z,17.46
2018-05-05T09:25:05.257Z,17.43
2018-05-05T09:27:33.661Z,18.28
2018-05-05T09:30:02.088Z,17.38
2018-05-05T09:32:30.465Z,17.86
2018-05-05T09:34:58.869Z,18.07
2018-05-05T09:37:27.351Z,19.34
2018-05-05T09:39:55.773Z,19.35
2018-05-05T09:42:24.179Z,20.83
2018-05-05T09:44:52.989Z,18.79
2018-05-05T09:47:21.399Z,20.52
2018-05-05T09:49:49.868Z,20.36
2018-05-05T09:52:18.280Z,19.33
2018-05-05T09:54:46.730Z,18.68
2018-05-05T09:57:15.232Z,18.03
2018-05-05T09:59:44.606Z,19.65
2018-05-05T10:02:13.115Z,17.74
2018-05-05T10:04:41.532Z,17.55
2018-05-05T10:07:10.027Z,17.12
2018-05-05T10:09:38.490Z,17.45
2018-05-05T10:12:07.105Z,16.70
2018-05-05T10:14:35.674Z,17.24
2018-05-05T10:17:04.093Z,17.39
2018-05-05T10:19:32.538Z,17.20
2018-05-05T10:22:01.001Z,16.78
2018-05-05T10:24:29.579Z,18.79
2018-05-05T10:26:58.045Z,20.31
2018-05-05T10:29:26.463Z,20.80
2018-05-05T10:31:54.941Z,19.39
2018-05-05T10:34:23.315Z,19.34
2018-05-05T10:36:51.793Z,18.96
2018-05-05T10:39:20.294Z,17.35
2018-05-05T10:41:48.744Z,16.27
2018-05-05T10:44:17.177Z,15.92
2018-05-05T10:46:45.686Z,16.55
2018-05-05T10:49:14.123Z,16.05
2018-05-05T10:51:42.602Z,15.92
2018-05-05T10:54:11.004Z,15.11
2018-05-05T10:56:39.444Z,15.36
2018-05-05T10:59:07.906Z,14.43
2018-05-05T11:01:36.336Z,14.83
2018-05-05T11:04:04.818Z,15.45
2018-05-05T11:06:33.220Z,14.74
2018-05-05T11:09:01.679Z,15.71
2018-05-05T11:11:30.094Z,16.37
2018-05-05T11:13:58.489Z,16.37
2018-05-05T11:16:26.930Z,16.88
2018-05-05T11:18:55.328Z,15.89
2018-05-05T11:21:23.822Z,16.03
2018-05-05T11:23:52.279Z,17.29
2018-05-05T11:26:20.700Z,16.23
2018-05-05T11:28:49.112Z,15.52
2018-05-05T11:31:17.549Z,16.18
2018-05-05T11:33:45.984Z,16.70
2018-05-05T11:36:14.373Z,17.28
2018-05-05T11:38:42.839Z,19.40
2018-05-05T11:41:11.231Z,19.96
2018-05-05T11:43:39.628Z,20.54
2018-05-05T11:46:08.083Z,20.30
2018-05-05T11:48:36.498Z,20.21
2018-05-05T11:51:04.957Z,20.66
2018-05-05T11:53:33.366Z,21.01
2018-05-05T11:56:01.800Z,21.32
2018-05-05T11:58:31.023Z,22.20
2018-05-05T12:00:59.410Z,22.01
2018-05-05T12:03:27.880Z,20.66
2018-05-05T12:05:56.338Z,20.73
2018-05-05T12:08:24.774Z,20.40
2018-05-05T12:10:53.204Z,19.89
2018-05-05T12:13:21.630Z,20.71
2018-05-05T12:15:50.175Z,20.70
2018-05-05T12:18:18.547Z,21.29
2018-05-05T12:20:46.945Z,21.22
2018-05-05T12:23:15.369Z,20.50
2018-05-05T12:25:43.778Z,20.53
2018-05-05T12:28:12.295Z,20.25
2018-05-05T12:30:40.689Z,20.40
2018-05-05T12:33:09.074Z,21.67
2018-05-05T12:35:37.485Z,21.69
2018-05-05T12:38:05.898Z,20.83
2018-05-05T12:40:34.397Z,20.33
2018-05-05T12:43:02.801Z,21.18
2018-05-05T12:45:31.196Z,21.07
2018-05-05T12:47:59.589Z,21.40
2018-05-05T12:50:28.004Z,22.84
2018-05-05T12:52:56.465Z,22.35
2018-05-05T12:55:24.869Z,21.59
2018-05-05T12:57:53.250Z,21.70
2018-05-05T13:00:21.676Z,22.13
2018-05-05T13:02:50.102Z,20.93
2018-05-05T13:05:18.531Z,20.78
2018-05-05T13:07:46.894Z,20.51
2018-05-05T13:10:15.266Z,19.99
2018-05-05T13:12:43.617Z,20.53
2018-05-05T13:15:11.973Z,20.45
2018-05-05T13:17:40.444Z,19.91
2018-05-05T13:20:08.804Z,19.93
2018-05-05T13:22:37.204Z,21.21
2018-05-05T13:25:05.565Z,20.28
2018-05-05T13:27:33.937Z,20.28
2018-05-05T13:30:02.369Z,20.53
2018-05-05T13:32:30.743Z,19.69
2018-05-05T13:34:59.129Z,20.08
2018-05-05T13:37:27.540Z,20.80
2018-05-05T13:39:55.931Z,20.86
2018-05-05T13:42:24.370Z,20.47
2018-05-05T13:44:52.773Z,20.02
2018-05-05T13:47:21.265Z,20.22
2018-05-05T13:49:49.661Z,19.80
2018-05-05T13:52:18.062Z,20.71
2018-05-05T13:54:46.440Z,20.68
2018-05-05T13:57:14.817Z,21.09
2018-05-05T13:59:43.262Z,21.07
2018-05-05T14:02:11.724Z,21.21
2018-05-05T14:04:40.119Z,20.53
2018-05-05T14:07:08.557Z,20.61
2018-05-05T14:09:36.991Z,21.15
2018-05-05T14:12:05.451Z,20.83
2018-05-05T14:14:33.873Z,21.69
2018-05-05T14:17:02.252Z,21.76
2018-05-05T14:19:30.645Z,22.38
2018-05-05T14:21:59.160Z,21.92
2018-05-05T14:24:27.634Z,22.19
2018-05-05T14:26:56.045Z,22.71
2018-05-05T14:29:24.456Z,22.83
2018-05-05T14:31:52.847Z,23.84
2018-05-05T14:34:21.265Z,24.16
2018-05-05T14:36:49.724Z,23.16
2018-05-05T14:39:18.236Z,22.62
2018-05-05T14:41:46.665Z,22.78
2018-05-05T14:44:15.077Z,23.55
2018-05-05T14:46:43.534Z,22.33
2018-05-05T14:49:11.974Z,22.92
2018-05-05T14:51:40.395Z,22.91
2018-05-05T14:54:08.858Z,23.00
2018-05-05T14:56:37.274Z,22.32
2018-05-05T14:59:05.678Z,22.13
2018-05-05T15:01:34.070Z,21.94
2018-05-05T15:04:02.534Z,21.65
2018-05-05T15:06:31.026Z,21.55
2018-05-05T15:08:59.476Z,22.20
2018-05-05T15:11:27.903Z,22.59
2018-05-05T15:13:56.349Z,23.19
2018-05-05T15:16:24.764Z,22.43
2018-05-05T15:18:53.209Z,22.33
2018-05-05T15:21:21.621Z,23.24
2018-05-05T15:23:50.082Z,22.70
2018-05-05T15:26:18.520Z,22.36
2018-05-05T15:28:46.937Z,22.12
2018-05-05T15:31:15.405Z,22.50
2018-05-05T15:33:43.805Z,22.14
2018-05-05T15:36:13.144Z,23.93
2018-05-05T15:38:41.569Z,22.82
2018-05-05T15:41:09.969Z,22.77
2018-05-05T15:43:38.436Z,22.74
2018-05-05T15:46:06.849Z,22.29
2018-05-05T15:48:35.335Z,22.92
2018-05-05T15:51:03.750Z,23.20
2018-05-05T15:53:32.167Z,24.84
2018-05-05T15:56:00.707Z,23.77
2018-05-05T15:58:29.157Z,24.23
2018-05-05T16:00:57.612Z,23.20
2018-05-05T16:03:26.097Z,22.51
2018-05-05T16:05:54.512Z,23.04
2018-05-05T16:08:23.955Z,22.97
2018-05-05T16:10:52.379Z,22.32
2018-05-05T16:13:20.885Z,22.45
2018-05-05T16:15:49.291Z,22.62
2018-05-05T16:18:17.691Z,21.84
2018-05-05T16:20:46.203Z,22.36
2018-05-05T16:23:14.537Z,22.73
2018-05-05T16:25:42.995Z,22.67
2018-05-05T16:28:11.445Z,22.53
2018-05-05T16:30:39.840Z,22.39
2018-05-05T16:33:08.326Z,22.07
2018-05-05T16:35:36.742Z,21.76
2018-05-05T16:38:05.235Z,21.63
2018-05-05T16:40:33.662Z,21.34
2018-05-05T16:43:02.142Z,21.61
2018-05-05T16:45:30.609Z,21.87
2018-05-05T16:47:59.009Z,21.57
2018-05-05T16:50:27.815Z,21.23
2018-05-05T16:52:56.290Z,21.52
2018-05-05T16:55:24.720Z,20.76
2018-05-05T16:57:53.134Z,21.53
2018-05-05T17:00:21.544Z,20.98
2018-05-05T17:02:50.132Z,20.89
2018-05-05T17:05:18.446Z,20.80
2018-05-05T17:07:46.859Z,21.10
2018-05-05T17:10:15.348Z,21.03
2018-05-05T17:12:43.742Z,21.25
2018-05-05T17:15:12.341Z,21.06
2018-05-05T17:17:40.752Z,20.97
2018-05-05T17:20:09.198Z,21.07
2018-05-05T17:22:37.765Z,21.73
2018-05-05T17:25:06.167Z,20.77
2018-05-05T17:27:34.713Z,21.00
2018-05-05T17:30:03.297Z,21.10
2018-05-05T17:32:31.696Z,21.51
2018-05-05T17:35:00.100Z,21.67
2018-05-05T17:37:28.531Z,21.46
2018-05-05T17:39:56.982Z,21.30
2018-05-05T17:42:25.328Z,21.64
2018-05-05T17:44:53.752Z,21.96
2018-05-05T17:47:22.142Z,22.30
2018-05-05T17:49:50.572Z,21.14
2018-05-05T17:52:18.921Z,21.01
2018-05-05T17:54:47.326Z,21.60
2018-05-05T17:57:15.698Z,21.68
2018-05-05T17:59:44.195Z,21.44
2018-05-05T18:02:12.561Z,22.21
2018-05-05T18:04:41.016Z,22.28
2018-05-05T18:07:09.393Z,22.00
2018-05-05T18:09:38.731Z,21.87
2018-05-05T18:12:07.225Z,22.39
2018-05-05T18:14:35.669Z,22.62
2018-05-05T18:17:04.271Z,22.96
2018-05-05T18:19:32.744Z,22.92
2018-05-05T18:22:01.267Z,23.38
2018-05-05T18:24:29.725Z,23.55
2018-05-05T18:26:58.185Z,24.16
2018-05-05T18:29:26.653Z,24.01
2018-05-05T18:31:55.616Z,24.37
2018-05-05T18:34:24.180Z,24.67
2018-05-05T18:36:52.636Z,25.41
2018-05-05T18:39:22.033Z,25.22
2018-05-05T18:41:50.520Z,24.60
2018-05-05T18:44:19.010Z,24.77
2018-05-05T18:46:47.533Z,24.84
2018-05-05T18:49:16.070Z,25.74
2018-05-05T18:51:44.589Z,25.79
2018-05-05T18:54:13.158Z,26.95
2018-05-05T18:56:41.857Z,26.01
2018-05-05T18:59:10.383Z,26.82
2018-05-05T19:01:38.757Z,27.14
2018-05-05T19:04:07.307Z,27.52
2018-05-05T19:06:35.768Z,27.68
2018-05-05T19:09:04.283Z,28.00
2018-05-05T19:11:32.741Z,29.19
2018-05-05T19:14:01.349Z,28.86
2018-05-05T19:16:29.805Z,29.84
2018-05-05T19:18:58.385Z,29.81
2018-05-05T19:21:26.891Z,30.34
2018-05-05T19:23:55.367Z,30.93
2018-05-05T19:26:23.935Z,30.73
2018-05-05T19:28:53.962Z,30.30
2018-05-05T19:31:23.778Z,31.47
2018-05-05T19:33:53.027Z,31.42
2018-05-05T19:36:22.809Z,32.43
2018-05-05T19:38:51.337Z,32.10
2018-05-05T19:41:20.057Z,32.02
2018-05-05T19:43:49.506Z,31.56
2018-05-05T19:46:17.929Z,31.88
2018-05-05T19:48:46.636Z,32.05
2018-05-05T19:51:15.225Z,32.98
2018-05-05T19:53:43.727Z,32.42
2018-05-05T19:56:12.239Z,33.13
2018-05-05T19:58:40.699Z,33.43
2018-05-05T20:01:09.173Z,33.59
2018-05-05T20:03:38.388Z,34.09
2018-05-05T20:06:06.842Z,35.05
2018-05-05T20:08:35.286Z,35.07
2018-05-05T20:11:03.917Z,33.92
2018-05-05T20:13:32.411Z,35.25
2018-05-05T20:16:00.868Z,35.25
2018-05-05T20:18:29.277Z,34.46
2018-05-05T20:20:57.746Z,34.99
2018-05-05T20:23:26.196Z,34.79
2018-05-05T20:25:54.576Z,35.69
2018-05-05T20:28:23.008Z,36.12
2018-05-05T20:30:51.419Z,36.70
2018-05-05T20:33:19.996Z,36.92
2018-05-05T20:35:48.477Z,37.57
2018-05-05T20:38:16.849Z,37.59
2018-05-05T20:40:45.269Z,37.50
2018-05-05T20:43:13.668Z,37.22
2018-05-05T20:45:42.165Z,37.98
2018-05-05T20:48:10.490Z,37.52
2018-05-05T20:50:38.870Z,37.74
2018-05-05T20:53:07.248Z,38.04
2018-05-05T20:55:35.714Z,38.17
2018-05-05T20:58:04.199Z,38.10
2018-05-05T21:00:32.574Z,38.54
2018-05-05T21:03:00.949Z,38.17
2018-05-05T21:05:29.356Z,38.27
2018-05-05T21:07:57.784Z,38.11
2018-05-05T21:10:26.286Z,38.96
2018-05-05T21:12:54.711Z,39.42
2018-05-05T21:15:23.162Z,38.85
2018-05-05T21:17:51.611Z,39.46
2018-05-05T21:20:20.047Z,39.80
2018-05-05T21:22:48.551Z,39.69
2018-05-05T21:25:16.944Z,40.17
2018-05-05T21:27:46.741Z,39.84
2018-05-05T21:30:15.077Z,41.15
2018-05-05T21:32:43.605Z,41.50
2018-05-05T21:35:12.030Z,40.79
2018-05-05T21:37:40.502Z,40.33
2018-05-05T21:40:08.930Z,40.98
2018-05-05T21:42:37.397Z,40.28
2018-05-05T21:45:05.864Z,40.36
2018-05-05T21:47:34.361Z,38.85
2018-05-05T21:50:02.793Z,39.43
2018-05-05T21:52:31.311Z,38.91
2018-05-05T21:54:59.786Z,38.17
2018-05-05T21:57:28.343Z,38.93
2018-05-05T21:59:56.769Z,37.92
2018-05-05T22:02:25.316Z,38.04
2018-05-05T22:04:53.683Z,38.24
2018-05-05T22:07:22.112Z,38.35
2018-05-05T22:09:50.563Z,38.01
2018-05-05T22:12:18.988Z,37.83
2018-05-05T22:14:47.377Z,38.33
2018-05-05T22:17:15.855Z,38.92
2018-05-05T22:19:44.266Z,39.13
2018-05-05T22:22:12.869Z,39.32
2018-05-05T22:24:41.286Z,38.64
2018-05-05T22:27:09.758Z,38.45
2018-05-05T22:29:38.241Z,39.00
2018-05-05T22:32:06.687Z,39.46
2018-05-05T22:34:35.176Z,39.46
2018-05-05T22:37:03.626Z,38.46
2018-05-05T22:39:31.996Z,38.84
2018-05-05T22:42:00.400Z,39.84
2018-05-05T22:44:28.810Z,40.21
2018-05-05T22:46:57.238Z,40.92
2018-05-05T22:49:25.654Z,38.96
2018-05-05T22:51:54.089Z,39.60
2018-05-05T22:54:23.371Z,39.21
2018-05-05T22:56:51.740Z,39.75
2018-05-05T22:59:20.149Z,38.56
2018-05-05T23:01:48.565Z,39.84
2018-05-05T23:04:16.961Z,39.87
2018-05-05T23:06:45.414Z,38.75
2018-05-05T23:09:13.783Z,38.19
2018-05-05T23:11:42.244Z,39.90
2018-05-05T23:14:10.711Z,38.81
2018-05-05T23:16:39.193Z,40.75
2018-05-05T23:19:07.543Z,39.27
2018-05-05T23:21:35.953Z,38.23
2018-05-05T23:24:04.358Z,38.95
2018-05-05T23:26:32.787Z,37.80
2018-05-05T23:29:01.199Z,37.54
2018-05-05T23:31:29.597Z,37.47
2018-05-05T23:33:58.021Z,38.11
2018-05-05T23:36:26.452Z,38.35
2018-05-05T23:38:54.895Z,37.44
2018-05-05T23:41:23.292Z,37.94
2018-05-05T23:43:51.727Z,36.98
2018-05-05T23:46:20.097Z,36.50
2018-05-05T23:48:48.522Z,37.00
2018-05-05T23:51:16.990Z,36.58
2018-05-05T23:53:45.406Z,36.01
2018-05-05T23:56:13.800Z,35.86
2018-05-05T23:58:42.258Z,36.89
